sensor_id;sensor_type;location;lat;lon;timestamp;temperature;humidity
70089;HTU21D;57460;47.134;19.888;2022-07-05T00:01:47;21.93;53.20
70089;HTU21D;57460;47.134;19.888;2022-07-05T00:04:13;21.81;56.07
70089;HTU21D;57460;47.134;19.888;2022-07-05T00:06:39;21.83;54.62
70089;HTU21D;57460;47.134;19.888;2022-07-05T00:09:28;21.98;55.08
70089;HTU21D;57460;47.134;19.888;2022-07-05T00:11:54;22.05;55.03
70089;HTU21D;57460;47.134;19.888;2022-07-05T00:14:20;22.16;52.37
70089;HTU21D;57460;47.134;19.888;2022-07-05T00:16:46;22.11;55.20
70089;HTU21D;57460;47.134;19.888;2022-07-05T00:19:12;22.14;55.41
70089;HTU21D;57460;47.134;19.888;2022-07-05T00:21:37;22.21;54.07
70089;HTU21D;57460;47.134;19.888;2022-07-05T00:24:03;22.22;53.93
70089;HTU21D;57460;47.134;19.888;2022-07-05T00:26:29;22.28;53.23
70089;HTU21D;57460;47.134;19.888;2022-07-05T00:28:55;22.44;52.72
70089;HTU21D;57460;47.134;19.888;2022-07-05T00:31:20;22.57;54.04
70089;HTU21D;57460;47.134;19.888;2022-07-05T00:33:46;22.71;49.11
70089;HTU21D;57460;47.134;19.888;2022-07-05T00:36:12;22.71;52.15
70089;HTU21D;57460;47.134;19.888;2022-07-05T00:38:38;22.77;51.53
70089;HTU21D;57460;47.134;19.888;2022-07-05T00:41:03;22.80;52.11
70089;HTU21D;57460;47.134;19.888;2022-07-05T00:43:29;22.88;50.64
70089;HTU21D;57460;47.134;19.888;2022-07-05T00:45:55;22.96;50.92
70089;HTU21D;57460;47.134;19.888;2022-07-05T00:48:21;23.01;51.28
70089;HTU21D;57460;47.134;19.888;2022-07-05T00:50:46;22.99;50.95
70089;HTU21D;57460;47.134;19.888;2022-07-05T00:53:13;23.01;50.24
70089;HTU21D;57460;47.134;19.888;2022-07-05T00:55:39;23.06;51.51
70089;HTU21D;57460;47.134;19.888;2022-07-05T00:58:05;23.08;50.19
70089;HTU21D;57460;47.134;19.888;2022-07-05T01:00:31;23.07;49.56
70089;HTU21D;57460;47.134;19.888;2022-07-05T01:02:57;23.08;48.69
70089;HTU21D;57460;47.134;19.888;2022-07-05T01:05:23;23.01;50.18
70089;HTU21D;57460;47.134;19.888;2022-07-05T01:07:49;22.99;51.89
70089;HTU21D;57460;47.134;19.888;2022-07-05T01:10:15;22.95;52.16
70089;HTU21D;57460;47.134;19.888;2022-07-05T01:12:41;22.93;51.68
70089;HTU21D;57460;47.134;19.888;2022-07-05T01:15:07;22.83;52.63
70089;HTU21D;57460;47.134;19.888;2022-07-05T01:17:34;22.77;53.14
70089;HTU21D;57460;47.134;19.888;2022-07-05T01:20:01;22.76;52.79
70089;HTU21D;57460;47.134;19.888;2022-07-05T01:22:32;22.81;53.14
70089;HTU21D;57460;47.134;19.888;2022-07-05T01:24:58;22.79;52.54
70089;HTU21D;57460;47.134;19.888;2022-07-05T01:27:25;22.84;51.66
70089;HTU21D;57460;47.134;19.888;2022-07-05T01:29:51;22.91;52.30
70089;HTU21D;57460;47.134;19.888;2022-07-05T01:32:16;22.86;52.60
70089;HTU21D;57460;47.134;19.888;2022-07-05T01:34:42;22.81;53.04
70089;HTU21D;57460;47.134;19.888;2022-07-05T01:37:09;22.79;52.63
70089;HTU21D;57460;47.134;19.888;2022-07-05T01:39:36;22.80;52.97
70089;HTU21D;57460;47.134;19.888;2022-07-05T01:42:02;22.86;51.53
70089;HTU21D;57460;47.134;19.888;2022-07-05T01:44:28;22.91;51.28
70089;HTU21D;57460;47.134;19.888;2022-07-05T01:47:00;22.90;53.07
70089;HTU21D;57460;47.134;19.888;2022-07-05T01:49:31;22.84;53.02
70089;HTU21D;57460;47.134;19.888;2022-07-05T01:52:08;22.79;52.37
70089;HTU21D;57460;47.134;19.888;2022-07-05T01:54:34;22.73;52.50
70089;HTU21D;57460;47.134;19.888;2022-07-05T01:57:00;22.68;52.65
70089;HTU21D;57460;47.134;19.888;2022-07-05T01:59:28;22.67;53.30
70089;HTU21D;57460;47.134;19.888;2022-07-05T02:01:53;22.62;52.65
70089;HTU21D;57460;47.134;19.888;2022-07-05T02:04:20;22.58;51.32
70089;HTU21D;57460;47.134;19.888;2022-07-05T02:06:46;22.52;52.74
70089;HTU21D;57460;47.134;19.888;2022-07-05T02:09:12;22.52;52.98
70089;HTU21D;57460;47.134;19.888;2022-07-05T02:11:37;22.54;51.39
70089;HTU21D;57460;47.134;19.888;2022-07-05T02:14:04;22.60;53.67
70089;HTU21D;57460;47.134;19.888;2022-07-05T02:16:29;22.63;53.01
70089;HTU21D;57460;47.134;19.888;2022-07-05T02:18:55;22.69;49.62
70089;HTU21D;57460;47.134;19.888;2022-07-05T02:21:21;22.77;49.85
70089;HTU21D;57460;47.134;19.888;2022-07-05T02:23:47;22.85;51.26
70089;HTU21D;57460;47.134;19.888;2022-07-05T02:26:13;22.92;51.23
70089;HTU21D;57460;47.134;19.888;2022-07-05T02:28:39;22.94;49.02
70089;HTU21D;57460;47.134;19.888;2022-07-05T02:31:05;22.93;52.35
70089;HTU21D;57460;47.134;19.888;2022-07-05T02:33:31;22.90;50.99
70089;HTU21D;57460;47.134;19.888;2022-07-05T02:35:56;22.84;51.35
70089;HTU21D;57460;47.134;19.888;2022-07-05T02:38:23;22.83;51.30
70089;HTU21D;57460;47.134;19.888;2022-07-05T02:40:49;22.86;49.81
70089;HTU21D;57460;47.134;19.888;2022-07-05T02:46:15;22.96;48.95
70089;HTU21D;57460;47.134;19.888;2022-07-05T02:48:57;22.96;50.26
70089;HTU21D;57460;47.134;19.888;2022-07-05T02:51:48;22.91;51.37
70089;HTU21D;57460;47.134;19.888;2022-07-05T02:54:24;22.85;49.13
70089;HTU21D;57460;47.134;19.888;2022-07-05T02:57:08;22.82;50.58
70089;HTU21D;57460;47.134;19.888;2022-07-05T03:00:34;22.77;51.69
70089;HTU21D;57460;47.134;19.888;2022-07-05T03:06:26;22.66;50.76
70089;HTU21D;57460;47.134;19.888;2022-07-05T03:09:22;22.65;51.98
70089;HTU21D;57460;47.134;19.888;2022-07-05T03:11:55;22.62;52.38
70089;HTU21D;57460;47.134;19.888;2022-07-05T03:14:52;22.58;52.47
70089;HTU21D;57460;47.134;19.888;2022-07-05T03:17:43;22.61;50.35
70089;HTU21D;57460;47.134;19.888;2022-07-05T03:20:31;22.62;50.72
70089;HTU21D;57460;47.134;19.888;2022-07-05T03:25:58;22.76;53.98
70089;HTU21D;57460;47.134;19.888;2022-07-05T03:28:40;22.73;54.35
70089;HTU21D;57460;47.134;19.888;2022-07-05T03:31:14;22.75;55.95
70089;HTU21D;57460;47.134;19.888;2022-07-05T03:33:50;22.82;54.18
70089;HTU21D;57460;47.134;19.888;2022-07-05T03:40:01;23.08;53.55
70089;HTU21D;57460;47.134;19.888;2022-07-05T03:50:56;23.59;52.36
70089;HTU21D;57460;47.134;19.888;2022-07-05T03:53:55;23.79;52.88
70089;HTU21D;57460;47.134;19.888;2022-07-05T05:15:13;27.04;47.49
70089;HTU21D;57460;47.134;19.888;2022-07-05T05:17:43;27.09;48.27
70089;HTU21D;57460;47.134;19.888;2022-07-05T05:20:12;27.11;49.20
70089;HTU21D;57460;47.134;19.888;2022-07-05T05:22:37;27.17;47.88
70089;HTU21D;57460;47.134;19.888;2022-07-05T05:25:05;27.22;47.44
70089;HTU21D;57460;47.134;19.888;2022-07-05T05:27:31;27.29;47.32
70089;HTU21D;57460;47.134;19.888;2022-07-05T05:29:57;27.34;47.16
70089;HTU21D;57460;47.134;19.888;2022-07-05T05:32:29;27.38;47.57
70089;HTU21D;57460;47.134;19.888;2022-07-05T05:34:55;27.46;47.61
70089;HTU21D;57460;47.134;19.888;2022-07-05T05:37:20;27.45;47.49
70089;HTU21D;57460;47.134;19.888;2022-07-05T05:39:47;27.41;48.45
70089;HTU21D;57460;47.134;19.888;2022-07-05T05:42:12;27.42;47.68
70089;HTU21D;57460;47.134;19.888;2022-07-05T05:44:45;27.45;47.86
70089;HTU21D;57460;47.134;19.888;2022-07-05T05:47:17;27.46;48.96
70089;HTU21D;57460;47.134;19.888;2022-07-05T05:49:46;27.55;49.55
70089;HTU21D;57460;47.134;19.888;2022-07-05T05:52:32;27.55;48.31
70089;HTU21D;57460;47.134;19.888;2022-07-05T05:54:58;27.59;47.89
70089;HTU21D;57460;47.134;19.888;2022-07-05T05:57:24;27.57;48.75
70089;HTU21D;57460;47.134;19.888;2022-07-05T05:59:53;27.60;49.05
70089;HTU21D;57460;47.134;19.888;2022-07-05T06:02:21;27.68;48.09
70089;HTU21D;57460;47.134;19.888;2022-07-05T06:04:47;27.74;50.53
70089;HTU21D;57460;47.134;19.888;2022-07-05T06:07:13;27.98;48.85
70089;HTU21D;57460;47.134;19.888;2022-07-05T06:09:39;28.27;47.49
70089;HTU21D;57460;47.134;19.888;2022-07-05T06:12:05;28.47;47.56
70089;HTU21D;57460;47.134;19.888;2022-07-05T06:14:32;28.61;47.30
70089;HTU21D;57460;47.134;19.888;2022-07-05T06:16:58;28.69;47.34
70089;HTU21D;57460;47.134;19.888;2022-07-05T06:19:24;28.80;46.98
70089;HTU21D;57460;47.134;19.888;2022-07-05T06:21:56;28.92;46.53
70089;HTU21D;57460;47.134;19.888;2022-07-05T06:24:35;29.08;45.76
70089;HTU21D;57460;47.134;19.888;2022-07-05T06:27:08;29.13;45.61
70089;HTU21D;57460;47.134;19.888;2022-07-05T06:29:40;29.28;45.74
70089;HTU21D;57460;47.134;19.888;2022-07-05T06:32:07;29.39;45.29
70089;HTU21D;57460;47.134;19.888;2022-07-05T06:34:41;29.64;45.31
70089;HTU21D;57460;47.134;19.888;2022-07-05T06:37:12;29.86;44.97
70089;HTU21D;57460;47.134;19.888;2022-07-05T06:39:41;30.09;44.32
70089;HTU21D;57460;47.134;19.888;2022-07-05T06:42:07;30.27;43.98
70089;HTU21D;57460;47.134;19.888;2022-07-05T06:44:46;30.21;42.85
70089;HTU21D;57460;47.134;19.888;2022-07-05T06:48:02;30.18;43.37
70089;HTU21D;57460;47.134;19.888;2022-07-05T06:50:31;30.18;41.88
70089;HTU21D;57460;47.134;19.888;2022-07-05T06:55:58;30.11;42.51
70089;HTU21D;57460;47.134;19.888;2022-07-05T06:58:27;30.22;42.26
70089;HTU21D;57460;47.134;19.888;2022-07-05T07:00:55;30.19;41.78
70089;HTU21D;57460;47.134;19.888;2022-07-05T07:03:24;30.28;41.25
70089;HTU21D;57460;47.134;19.888;2022-07-05T07:05:50;30.20;41.07
70089;HTU21D;57460;47.134;19.888;2022-07-05T07:08:20;30.21;41.29
70089;HTU21D;57460;47.134;19.888;2022-07-05T07:11:04;30.35;41.29
70089;HTU21D;57460;47.134;19.888;2022-07-05T07:13:46;30.53;39.91
70089;HTU21D;57460;47.134;19.888;2022-07-05T07:16:14;30.56;40.87
70089;HTU21D;57460;47.134;19.888;2022-07-05T07:19:14;30.72;40.33
70089;HTU21D;57460;47.134;19.888;2022-07-05T07:21:55;30.80;38.92
70089;HTU21D;57460;47.134;19.888;2022-07-05T07:24:23;30.94;39.89
70089;HTU21D;57460;47.134;19.888;2022-07-05T07:26:49;31.14;39.75
70089;HTU21D;57460;47.134;19.888;2022-07-05T07:29:38;31.28;39.20
70089;HTU21D;57460;47.134;19.888;2022-07-05T07:32:08;31.56;38.09
70089;HTU21D;57460;47.134;19.888;2022-07-05T07:34:35;31.75;38.20
70089;HTU21D;57460;47.134;19.888;2022-07-05T07:37:05;31.96;38.04
70089;HTU21D;57460;47.134;19.888;2022-07-05T07:39:34;32.11;37.38
70089;HTU21D;57460;47.134;19.888;2022-07-05T07:42:02;32.26;37.24
70089;HTU21D;57460;47.134;19.888;2022-07-05T07:44:28;32.42;37.02
70089;HTU21D;57460;47.134;19.888;2022-07-05T07:52:39;32.63;35.24
70089;HTU21D;57460;47.134;19.888;2022-07-05T07:55:06;32.57;35.89
70089;HTU21D;57460;47.134;19.888;2022-07-05T07:57:36;32.47;36.16
70089;HTU21D;57460;47.134;19.888;2022-07-05T08:00:03;32.49;35.92
70089;HTU21D;57460;47.134;19.888;2022-07-05T08:02:29;32.67;35.13
70089;HTU21D;57460;47.134;19.888;2022-07-05T08:04:55;32.69;35.31
70089;HTU21D;57460;47.134;19.888;2022-07-05T08:07:27;32.47;35.31
70089;HTU21D;57460;47.134;19.888;2022-07-05T08:09:55;32.50;36.08
70089;HTU21D;57460;47.134;19.888;2022-07-05T08:12:20;32.55;35.60
70089;HTU21D;57460;47.134;19.888;2022-07-05T08:14:49;32.73;35.08
70089;HTU21D;57460;47.134;19.888;2022-07-05T08:17:19;32.68;34.44
70089;HTU21D;57460;47.134;19.888;2022-07-05T08:19:46;32.71;34.81
70089;HTU21D;57460;47.134;19.888;2022-07-05T08:22:37;32.72;34.11
70089;HTU21D;57460;47.134;19.888;2022-07-05T08:25:05;32.55;33.42
70089;HTU21D;57460;47.134;19.888;2022-07-05T08:27:40;32.67;34.26
70089;HTU21D;57460;47.134;19.888;2022-07-05T08:30:06;32.78;33.87
70089;HTU21D;57460;47.134;19.888;2022-07-05T08:32:32;32.76;33.40
70089;HTU21D;57460;47.134;19.888;2022-07-05T08:34:58;32.99;33.58
70089;HTU21D;57460;47.134;19.888;2022-07-05T08:37:24;33.06;33.25
70089;HTU21D;57460;47.134;19.888;2022-07-05T08:39:50;33.36;33.84
70089;HTU21D;57460;47.134;19.888;2022-07-05T08:42:17;33.50;31.83
70089;HTU21D;57460;47.134;19.888;2022-07-05T08:44:49;33.75;32.24
70089;HTU21D;57460;47.134;19.888;2022-07-05T08:47:19;33.89;32.53
70089;HTU21D;57460;47.134;19.888;2022-07-05T08:49:47;34.03;31.93
70089;HTU21D;57460;47.134;19.888;2022-07-05T08:52:17;34.32;31.41
70089;HTU21D;57460;47.134;19.888;2022-07-05T08:55:08;34.12;31.19
70089;HTU21D;57460;47.134;19.888;2022-07-05T08:58:05;34.20;31.07
70089;HTU21D;57460;47.134;19.888;2022-07-05T09:00:32;34.30;31.94
70089;HTU21D;57460;47.134;19.888;2022-07-05T09:03:01;34.45;31.56
70089;HTU21D;57460;47.134;19.888;2022-07-05T09:06:01;34.64;30.51
70089;HTU21D;57460;47.134;19.888;2022-07-05T09:08:59;34.85;31.17
70089;HTU21D;57460;47.134;19.888;2022-07-05T09:11:35;35.15;31.11
70089;HTU21D;57460;47.134;19.888;2022-07-05T09:14:07;35.37;28.97
70089;HTU21D;57460;47.134;19.888;2022-07-05T09:16:41;35.58;30.13
70089;HTU21D;57460;47.134;19.888;2022-07-05T09:19:08;35.62;30.91
70089;HTU21D;57460;47.134;19.888;2022-07-05T09:21:35;35.54;30.25
70089;HTU21D;57460;47.134;19.888;2022-07-05T09:24:06;35.48;30.32
70089;HTU21D;57460;47.134;19.888;2022-07-05T09:26:35;35.36;29.57
70089;HTU21D;57460;47.134;19.888;2022-07-05T09:29:07;35.29;30.00
70089;HTU21D;57460;47.134;19.888;2022-07-05T09:31:35;35.26;30.35
70089;HTU21D;57460;47.134;19.888;2022-07-05T09:34:09;35.12;30.08
70089;HTU21D;57460;47.134;19.888;2022-07-05T09:36:58;35.07;30.35
70089;HTU21D;57460;47.134;19.888;2022-07-05T09:42:24;34.71;29.58
70089;HTU21D;57460;47.134;19.888;2022-07-05T09:44:54;34.71;30.71
70089;HTU21D;57460;47.134;19.888;2022-07-05T09:47:24;34.65;31.15
70089;HTU21D;57460;47.134;19.888;2022-07-05T09:49:52;34.81;30.63
70089;HTU21D;57460;47.134;19.888;2022-07-05T09:52:27;34.91;30.25
70089;HTU21D;57460;47.134;19.888;2022-07-05T09:55:11;34.74;29.30
70089;HTU21D;57460;47.134;19.888;2022-07-05T09:57:44;34.60;30.17
70089;HTU21D;57460;47.134;19.888;2022-07-05T10:00:13;34.50;29.50
70089;HTU21D;57460;47.134;19.888;2022-07-05T10:02:45;34.44;29.75
70089;HTU21D;57460;47.134;19.888;2022-07-05T10:05:21;34.29;28.97
70089;HTU21D;57460;47.134;19.888;2022-07-05T10:08:06;34.22;30.49
70089;HTU21D;57460;47.134;19.888;2022-07-05T10:10:32;34.16;29.10
70089;HTU21D;57460;47.134;19.888;2022-07-05T10:13:00;34.31;30.52
70089;HTU21D;57460;47.134;19.888;2022-07-05T10:15:47;34.30;30.04
70089;HTU21D;57460;47.134;19.888;2022-07-05T10:18:21;34.54;29.77
70089;HTU21D;57460;47.134;19.888;2022-07-05T10:20:49;34.81;30.05
70089;HTU21D;57460;47.134;19.888;2022-07-05T10:23:19;35.07;29.51
70089;HTU21D;57460;47.134;19.888;2022-07-05T10:25:51;35.22;29.64
70089;HTU21D;57460;47.134;19.888;2022-07-05T10:28:21;35.44;29.23
70089;HTU21D;57460;47.134;19.888;2022-07-05T10:30:59;35.67;28.84
70089;HTU21D;57460;47.134;19.888;2022-07-05T10:33:27;35.96;28.45
70089;HTU21D;57460;47.134;19.888;2022-07-05T10:36:13;36.34;27.75
70089;HTU21D;57460;47.134;19.888;2022-07-05T10:39:02;36.53;28.85
70089;HTU21D;57460;47.134;19.888;2022-07-05T10:41:33;36.71;26.33
70089;HTU21D;57460;47.134;19.888;2022-07-05T10:44:05;36.82;26.02
70089;HTU21D;57460;47.134;19.888;2022-07-05T10:49:40;37.37;27.00
70089;HTU21D;57460;47.134;19.888;2022-07-05T10:52:23;37.48;26.04
70089;HTU21D;57460;47.134;19.888;2022-07-05T10:55:18;37.51;25.63
70089;HTU21D;57460;47.134;19.888;2022-07-05T10:57:44;37.50;26.14
70089;HTU21D;57460;47.134;19.888;2022-07-05T11:00:11;37.50;25.80
70089;HTU21D;57460;47.134;19.888;2022-07-05T11:02:39;37.41;25.43
70089;HTU21D;57460;47.134;19.888;2022-07-05T11:05:06;37.26;24.20
70089;HTU21D;57460;47.134;19.888;2022-07-05T11:08:00;37.31;24.65
70089;HTU21D;57460;47.134;19.888;2022-07-05T11:10:31;37.21;24.17
70089;HTU21D;57460;47.134;19.888;2022-07-05T11:12:58;37.31;24.31
70089;HTU21D;57460;47.134;19.888;2022-07-05T11:15:24;37.15;24.21
70089;HTU21D;57460;47.134;19.888;2022-07-05T11:18:15;37.22;24.55
70089;HTU21D;57460;47.134;19.888;2022-07-05T11:20:41;36.66;27.52
70089;HTU21D;57460;47.134;19.888;2022-07-05T11:23:10;35.98;30.15
70089;HTU21D;57460;47.134;19.888;2022-07-05T11:25:43;35.08;30.97
70089;HTU21D;57460;47.134;19.888;2022-07-05T11:28:18;34.27;34.30
70089;HTU21D;57460;47.134;19.888;2022-07-05T11:30:50;33.79;34.44
70089;HTU21D;57460;47.134;19.888;2022-07-05T11:33:42;33.43;36.44
70089;HTU21D;57460;47.134;19.888;2022-07-05T11:36:25;33.22;34.99
70089;HTU21D;57460;47.134;19.888;2022-07-05T11:42:19;32.76;35.69
70089;HTU21D;57460;47.134;19.888;2022-07-05T11:44:49;32.86;35.43
70089;HTU21D;57460;47.134;19.888;2022-07-05T11:47:19;32.99;34.96
70089;HTU21D;57460;47.134;19.888;2022-07-05T11:49:56;32.67;35.96
70089;HTU21D;57460;47.134;19.888;2022-07-05T11:52:30;32.27;35.92
70089;HTU21D;57460;47.134;19.888;2022-07-05T11:54:58;32.12;37.13
70089;HTU21D;57460;47.134;19.888;2022-07-05T11:57:24;31.86;36.82
70089;HTU21D;57460;47.134;19.888;2022-07-05T11:59:50;31.64;38.33
70089;HTU21D;57460;47.134;19.888;2022-07-05T12:02:20;31.61;37.48
70089;HTU21D;57460;47.134;19.888;2022-07-05T12:04:51;31.48;39.51
70089;HTU21D;57460;47.134;19.888;2022-07-05T12:07:25;31.38;38.79
70089;HTU21D;57460;47.134;19.888;2022-07-05T12:09:51;31.37;38.56
70089;HTU21D;57460;47.134;19.888;2022-07-05T12:12:36;31.21;38.57
70089;HTU21D;57460;47.134;19.888;2022-07-05T12:15:24;31.06;38.75
70089;HTU21D;57460;47.134;19.888;2022-07-05T12:17:52;30.89;39.27
70089;HTU21D;57460;47.134;19.888;2022-07-05T12:20:22;30.66;40.60
70089;HTU21D;57460;47.134;19.888;2022-07-05T12:22:51;30.64;40.70
70089;HTU21D;57460;47.134;19.888;2022-07-05T12:25:23;30.52;40.06
70089;HTU21D;57460;47.134;19.888;2022-07-05T12:27:52;30.23;41.52
70089;HTU21D;57460;47.134;19.888;2022-07-05T12:30:22;30.20;40.50
70089;HTU21D;57460;47.134;19.888;2022-07-05T12:33:14;30.06;43.33
70089;HTU21D;57460;47.134;19.888;2022-07-05T12:35:45;29.78;44.45
70089;HTU21D;57460;47.134;19.888;2022-07-05T12:38:17;29.42;43.06
70089;HTU21D;57460;47.134;19.888;2022-07-05T12:40:48;29.24;43.84
70089;HTU21D;57460;47.134;19.888;2022-07-05T12:43:23;28.94;47.35
70089;HTU21D;57460;47.134;19.888;2022-07-05T12:51:46;28.79;45.50
70089;HTU21D;57460;47.134;19.888;2022-07-05T12:54:39;28.65;48.93
70089;HTU21D;57460;47.134;19.888;2022-07-05T12:57:26;28.35;49.32
70089;HTU21D;57460;47.134;19.888;2022-07-05T13:00:30;28.38;47.01
70089;HTU21D;57460;47.134;19.888;2022-07-05T13:02:59;28.34;47.22
70089;HTU21D;57460;47.134;19.888;2022-07-05T13:05:25;28.17;47.60
70089;HTU21D;57460;47.134;19.888;2022-07-05T13:08:31;27.69;49.89
70089;HTU21D;57460;47.134;19.888;2022-07-05T13:11:00;27.50;50.21
70089;HTU21D;57460;47.134;19.888;2022-07-05T13:13:26;27.27;53.48
70089;HTU21D;57460;47.134;19.888;2022-07-05T13:15:54;27.10;54.50
70089;HTU21D;57460;47.134;19.888;2022-07-05T13:18:28;26.97;52.32
70089;HTU21D;57460;47.134;19.888;2022-07-05T13:21:06;26.99;55.56
70089;HTU21D;57460;47.134;19.888;2022-07-05T13:23:32;26.94;56.38
70089;HTU21D;57460;47.134;19.888;2022-07-05T13:26:02;26.89;58.45
70089;HTU21D;57460;47.134;19.888;2022-07-05T13:28:28;27.00;52.33
70089;HTU21D;57460;47.134;19.888;2022-07-05T13:30:54;27.00;53.41
70089;HTU21D;57460;47.134;19.888;2022-07-05T13:33:21;27.13;53.92
70089;HTU21D;57460;47.134;19.888;2022-07-05T13:35:46;27.28;53.11
70089;HTU21D;57460;47.134;19.888;2022-07-05T13:38:13;27.29;53.57
70089;HTU21D;57460;47.134;19.888;2022-07-05T13:40:45;27.34;55.10
70089;HTU21D;57460;47.134;19.888;2022-07-05T13:43:11;27.38;53.40
70089;HTU21D;57460;47.134;19.888;2022-07-05T13:45:47;27.45;56.30
70089;HTU21D;57460;47.134;19.888;2022-07-05T13:48:16;27.52;54.31
70089;HTU21D;57460;47.134;19.888;2022-07-05T13:50:46;27.46;54.62
70089;HTU21D;57460;47.134;19.888;2022-07-05T13:53:18;27.55;53.14
70089;HTU21D;57460;47.134;19.888;2022-07-05T13:55:46;27.60;55.23
70089;HTU21D;57460;47.134;19.888;2022-07-05T13:58:12;27.68;54.01
70089;HTU21D;57460;47.134;19.888;2022-07-05T14:00:41;27.70;53.14
70089;HTU21D;57460;47.134;19.888;2022-07-05T14:03:17;27.81;53.82
70089;HTU21D;57460;47.134;19.888;2022-07-05T14:05:43;27.86;52.65
70089;HTU21D;57460;47.134;19.888;2022-07-05T14:08:24;27.93;52.62
70089;HTU21D;57460;47.134;19.888;2022-07-05T14:11:16;27.93;53.77
70089;HTU21D;57460;47.134;19.888;2022-07-05T14:14:17;28.00;52.64
70089;HTU21D;57460;47.134;19.888;2022-07-05T14:17:04;27.99;53.13
70089;HTU21D;57460;47.134;19.888;2022-07-05T14:19:35;27.60;54.51
70089;HTU21D;57460;47.134;19.888;2022-07-05T14:22:04;27.64;54.51
70089;HTU21D;57460;47.134;19.888;2022-07-05T14:24:30;27.80;53.33
70089;HTU21D;57460;47.134;19.888;2022-07-05T14:26:57;27.96;52.27
70089;HTU21D;57460;47.134;19.888;2022-07-05T14:29:24;28.08;51.87
70089;HTU21D;57460;47.134;19.888;2022-07-05T14:31:50;28.11;51.50
70089;HTU21D;57460;47.134;19.888;2022-07-05T14:34:20;28.09;51.68
70089;HTU21D;57460;47.134;19.888;2022-07-05T14:36:47;28.06;50.67
70089;HTU21D;57460;47.134;19.888;2022-07-05T14:39:13;28.08;50.76
70089;HTU21D;57460;47.134;19.888;2022-07-05T14:41:45;28.16;50.79
70089;HTU21D;57460;47.134;19.888;2022-07-05T14:44:14;28.30;50.40
70089;HTU21D;57460;47.134;19.888;2022-07-05T14:46:43;28.50;49.47
70089;HTU21D;57460;47.134;19.888;2022-07-05T14:49:09;28.50;49.90
70089;HTU21D;57460;47.134;19.888;2022-07-05T14:51:35;28.71;49.15
70089;HTU21D;57460;47.134;19.888;2022-07-05T14:54:01;28.78;49.34
70089;HTU21D;57460;47.134;19.888;2022-07-05T14:56:27;28.83;48.74
70089;HTU21D;57460;47.134;19.888;2022-07-05T14:58:53;28.79;48.10
70089;HTU21D;57460;47.134;19.888;2022-07-05T15:01:21;28.88;48.55
70089;HTU21D;57460;47.134;19.888;2022-07-05T15:03:47;28.83;48.77
70089;HTU21D;57460;47.134;19.888;2022-07-05T15:06:17;29.00;48.24
70089;HTU21D;57460;47.134;19.888;2022-07-05T15:08:43;28.74;48.82
70089;HTU21D;57460;47.134;19.888;2022-07-05T15:11:09;28.38;49.59
70089;HTU21D;57460;47.134;19.888;2022-07-05T15:13:34;28.29;49.85
70089;HTU21D;57460;47.134;19.888;2022-07-05T15:16:01;28.20;50.48
70089;HTU21D;57460;47.134;19.888;2022-07-05T15:18:29;28.14;50.11
70089;HTU21D;57460;47.134;19.888;2022-07-05T15:20:58;28.08;51.37
70089;HTU21D;57460;47.134;19.888;2022-07-05T15:23:23;28.19;50.98
70089;HTU21D;57460;47.134;19.888;2022-07-05T15:25:59;28.31;49.50
70089;HTU21D;57460;47.134;19.888;2022-07-05T15:28:28;28.14;49.05
70089;HTU21D;57460;47.134;19.888;2022-07-05T15:30:54;28.25;48.75
70089;HTU21D;57460;47.134;19.888;2022-07-05T15:33:25;28.42;48.31
70089;HTU21D;57460;47.134;19.888;2022-07-05T15:35:59;28.40;48.47
70089;HTU21D;57460;47.134;19.888;2022-07-05T15:38:28;28.43;48.17
70089;HTU21D;57460;47.134;19.888;2022-07-05T15:41:01;28.41;47.19
70089;HTU21D;57460;47.134;19.888;2022-07-05T15:43:28;28.29;47.96
70089;HTU21D;57460;47.134;19.888;2022-07-05T15:45:57;28.29;47.90
70089;HTU21D;57460;47.134;19.888;2022-07-05T15:48:32;28.31;47.80
70089;HTU21D;57460;47.134;19.888;2022-07-05T15:50:58;28.41;47.40
70089;HTU21D;57460;47.134;19.888;2022-07-05T15:53:29;28.29;47.75
70089;HTU21D;57460;47.134;19.888;2022-07-05T15:55:55;28.34;47.95
70089;HTU21D;57460;47.134;19.888;2022-07-05T15:58:26;28.24;47.62
70089;HTU21D;57460;47.134;19.888;2022-07-05T16:00:52;28.21;47.92
70089;HTU21D;57460;47.134;19.888;2022-07-05T16:03:23;27.94;49.03
70089;HTU21D;57460;47.134;19.888;2022-07-05T16:05:49;28.17;47.95
70089;HTU21D;57460;47.134;19.888;2022-07-05T16:08:15;28.19;48.12
70089;HTU21D;57460;47.134;19.888;2022-07-05T16:10:45;28.26;48.52
70089;HTU21D;57460;47.134;19.888;2022-07-05T16:13:11;28.35;47.84
70089;HTU21D;57460;47.134;19.888;2022-07-05T16:15:41;28.20;48.76
70089;HTU21D;57460;47.134;19.888;2022-07-05T16:18:26;28.21;47.72
70089;HTU21D;57460;47.134;19.888;2022-07-05T16:20:53;28.34;46.89
70089;HTU21D;57460;47.134;19.888;2022-07-05T16:23:26;28.16;47.70
70089;HTU21D;57460;47.134;19.888;2022-07-05T16:25:55;27.96;48.19
70089;HTU21D;57460;47.134;19.888;2022-07-05T16:28:33;28.03;47.82
70089;HTU21D;57460;47.134;19.888;2022-07-05T16:31:05;28.03;47.99
70089;HTU21D;57460;47.134;19.888;2022-07-05T16:33:46;27.91;48.37
70089;HTU21D;57460;47.134;19.888;2022-07-05T16:36:23;27.87;48.63
70089;HTU21D;57460;47.134;19.888;2022-07-05T16:38:50;27.85;48.92
70089;HTU21D;57460;47.134;19.888;2022-07-05T16:41:16;27.87;48.52
70089;HTU21D;57460;47.134;19.888;2022-07-05T16:43:44;27.82;48.89
70089;HTU21D;57460;47.134;19.888;2022-07-05T16:46:12;27.83;48.92
70089;HTU21D;57460;47.134;19.888;2022-07-05T16:48:46;27.80;48.89
70089;HTU21D;57460;47.134;19.888;2022-07-05T16:51:15;27.60;49.47
70089;HTU21D;57460;47.134;19.888;2022-07-05T16:53:42;27.53;49.63
70089;HTU21D;57460;47.134;19.888;2022-07-05T16:56:11;27.44;49.85
70089;HTU21D;57460;47.134;19.888;2022-07-05T16:58:38;27.35;51.27
70089;HTU21D;57460;47.134;19.888;2022-07-05T17:01:07;27.47;50.04
70089;HTU21D;57460;47.134;19.888;2022-07-05T17:03:54;27.28;51.18
70089;HTU21D;57460;47.134;19.888;2022-07-05T17:06:21;27.22;51.46
70089;HTU21D;57460;47.134;19.888;2022-07-05T17:08:59;27.25;51.01
70089;HTU21D;57460;47.134;19.888;2022-07-05T17:11:25;27.22;51.33
70089;HTU21D;57460;47.134;19.888;2022-07-05T17:13:52;26.98;53.46
70089;HTU21D;57460;47.134;19.888;2022-07-05T17:16:20;27.08;52.56
70089;HTU21D;57460;47.134;19.888;2022-07-05T17:18:47;26.99;52.12
70089;HTU21D;57460;47.134;19.888;2022-07-05T17:21:14;26.95;53.14
70089;HTU21D;57460;47.134;19.888;2022-07-05T17:23:44;26.66;55.31
70089;HTU21D;57460;47.134;19.888;2022-07-05T17:26:31;26.64;54.75
70089;HTU21D;57460;47.134;19.888;2022-07-05T17:29:00;26.63;53.66
70089;HTU21D;57460;47.134;19.888;2022-07-05T17:31:26;26.56;54.66
70089;HTU21D;57460;47.134;19.888;2022-07-05T17:33:52;26.52;54.17